sensor_id;sensor_type;location;lat;lon;timestamp;temperature;humidity
44851;DHT22;30583;48.714;9.386;2024-01-11T00:00:42;-3276.40;64.70
44851;DHT22;30583;48.714;9.386;2024-01-11T00:03:08;-3276.40;65.20
44851;DHT22;30583;48.714;9.386;2024-01-11T00:05:35;-3276.50;64.90
44851;DHT22;30583;48.714;9.386;2024-01-11T00:08:00;0.00;64.00
44851;DHT22;30583;48.714;9.386;2024-01-11T00:10:26;-3276.60;64.10
44851;DHT22;30583;48.714;9.386;2024-01-11T00:12:51;0.00;63.60
44851;DHT22;30583;48.714;9.386;2024-01-11T00:15:17;0.20;63.00
44851;DHT22;30583;48.714;9.386;2024-01-11T00:17:43;0.00;63.40
44851;DHT22;30583;48.714;9.386;2024-01-11T00:20:09;0.20;62.90
44851;DHT22;30583;48.714;9.386;2024-01-11T00:22:36;0.00;62.30
44851;DHT22;30583;48.714;9.386;2024-01-11T00:25:01;-3276.70;63.70
44851;DHT22;30583;48.714;9.386;2024-01-11T00:27:28;0.00;63.00
44851;DHT22;30583;48.714;9.386;2024-01-11T00:29:53;-3275.90;65.50
44851;DHT22;30583;48.714;9.386;2024-01-11T00:32:19;-3276.50;64.40
44851;DHT22;30583;48.714;9.386;2024-01-11T00:34:47;-3276.20;64.90
44851;DHT22;30583;48.714;9.386;2024-01-11T00:37:12;-3276.40;64.60
44851;DHT22;30583;48.714;9.386;2024-01-11T00:39:38;-3276.40;64.30
44851;DHT22;30583;48.714;9.386;2024-01-11T00:42:03;-3276.40;64.50
44851;DHT22;30583;48.714;9.386;2024-01-11T00:44:29;-3276.70;63.60
44851;DHT22;30583;48.714;9.386;2024-01-11T00:46:55;-3276.40;63.80
44851;DHT22;30583;48.714;9.386;2024-01-11T00:49:21;-3276.10;64.90
44851;DHT22;30583;48.714;9.386;2024-01-11T00:51:47;-3276.40;64.30
44851;DHT22;30583;48.714;9.386;2024-01-11T00:54:12;-3276.60;63.30
44851;DHT22;30583;48.714;9.386;2024-01-11T00:56:38;-3276.60;63.30
44851;DHT22;30583;48.714;9.386;2024-01-11T00:59:03;-3276.40;63.80
44851;DHT22;30583;48.714;9.386;2024-01-11T01:01:29;-3276.70;63.30
44851;DHT22;30583;48.714;9.386;2024-01-11T01:03:55;-3276.60;62.80
44851;DHT22;30583;48.714;9.386;2024-01-11T01:06:21;-3276.00;64.10
44851;DHT22;30583;48.714;9.386;2024-01-11T01:08:46;-3275.80;65.50
44851;DHT22;30583;48.714;9.386;2024-01-11T01:11:12;-3275.90;65.70
44851;DHT22;30583;48.714;9.386;2024-01-11T01:13:38;-3276.00;65.40
44851;DHT22;30583;48.714;9.386;2024-01-11T01:16:04;-3276.40;64.50
44851;DHT22;30583;48.714;9.386;2024-01-11T01:18:29;-3275.80;65.10
44851;DHT22;30583;48.714;9.386;2024-01-11T01:20:55;-3276.10;65.10
44851;DHT22;30583;48.714;9.386;2024-01-11T01:23:21;-3276.30;64.30
44851;DHT22;30583;48.714;9.386;2024-01-11T01:25:47;-3276.10;64.30
44851;DHT22;30583;48.714;9.386;2024-01-11T01:28:12;-3276.30;64.40
44851;DHT22;30583;48.714;9.386;2024-01-11T01:30:38;-3276.50;63.70
44851;DHT22;30583;48.714;9.386;2024-01-11T01:33:04;-3276.30;64.50
44851;DHT22;30583;48.714;9.386;2024-01-11T01:35:29;-3276.50;64.40
44851;DHT22;30583;48.714;9.386;2024-01-11T01:37:55;-3276.50;64.00
44851;DHT22;30583;48.714;9.386;2024-01-11T01:40:21;-3276.50;64.10
44851;DHT22;30583;48.714;9.386;2024-01-11T01:42:47;-3276.30;64.20
44851;DHT22;30583;48.714;9.386;2024-01-11T01:45:15;-3276.10;64.40
44851;DHT22;30583;48.714;9.386;2024-01-11T01:47:41;-3276.10;64.80
44851;DHT22;30583;48.714;9.386;2024-01-11T01:50:08;-3276.30;64.60
44851;DHT22;30583;48.714;9.386;2024-01-11T01:52:36;-3276.10;65.00
44851;DHT22;30583;48.714;9.386;2024-01-11T01:55:03;-3276.40;64.00
44851;DHT22;30583;48.714;9.386;2024-01-11T01:57:36;-3276.30;64.00
44851;DHT22;30583;48.714;9.386;2024-01-11T02:00:02;-3276.50;63.60
44851;DHT22;30583;48.714;9.386;2024-01-11T02:02:30;-3276.50;63.50
44851;DHT22;30583;48.714;9.386;2024-01-11T02:04:57;-3276.40;63.70
44851;DHT22;30583;48.714;9.386;2024-01-11T02:07:23;-3276.20;63.90
44851;DHT22;30583;48.714;9.386;2024-01-11T02:09:50;-3275.60;65.60
44851;DHT22;30583;48.714;9.386;2024-01-11T02:12:17;-3275.50;66.50
44851;DHT22;30583;48.714;9.386;2024-01-11T02:14:43;-3275.70;66.10
44851;DHT22;30583;48.714;9.386;2024-01-11T02:17:09;-3275.80;65.50
44851;DHT22;30583;48.714;9.386;2024-01-11T02:19:35;-3275.80;64.90
44851;DHT22;30583;48.714;9.386;2024-01-11T02:24:43;-3275.80;65.30
44851;DHT22;30583;48.714;9.386;2024-01-11T02:27:08;-3276.30;64.20
44851;DHT22;30583;48.714;9.386;2024-01-11T02:29:36;-3276.20;63.80
44851;DHT22;30583;48.714;9.386;2024-01-11T02:32:02;-3276.30;63.60
44851;DHT22;30583;48.714;9.386;2024-01-11T02:34:29;-3276.30;63.50
44851;DHT22;30583;48.714;9.386;2024-01-11T02:36:55;-3276.20;62.90
44851;DHT22;30583;48.714;9.386;2024-01-11T02:39:22;-3275.80;64.30
44851;DHT22;30583;48.714;9.386;2024-01-11T02:41:50;-3276.10;63.80
44851;DHT22;30583;48.714;9.386;2024-01-11T02:44:16;-3276.50;63.00
44851;DHT22;30583;48.714;9.386;2024-01-11T02:46:41;-3276.10;63.40
44851;DHT22;30583;48.714;9.386;2024-01-11T02:49:07;-3276.20;63.70
44851;DHT22;30583;48.714;9.386;2024-01-11T02:51:32;-3276.10;64.00
44851;DHT22;30583;48.714;9.386;2024-01-11T02:53:58;-3276.10;63.50
44851;DHT22;30583;48.714;9.386;2024-01-11T02:56:24;-3275.90;63.80
44851;DHT22;30583;48.714;9.386;2024-01-11T02:58:50;-3275.20;65.50
44851;DHT22;30583;48.714;9.386;2024-01-11T03:01:15;-3275.30;66.10
44851;DHT22;30583;48.714;9.386;2024-01-11T03:03:41;-3275.90;65.20
44851;DHT22;30583;48.714;9.386;2024-01-11T03:06:06;-3276.10;64.10
44851;DHT22;30583;48.714;9.386;2024-01-11T03:08:33;-3276.20;64.00
44851;DHT22;30583;48.714;9.386;2024-01-11T03:10:59;-3276.40;63.00
44851;DHT22;30583;48.714;9.386;2024-01-11T03:13:24;-3276.40;62.60
44851;DHT22;30583;48.714;9.386;2024-01-11T03:15:50;-3276.30;62.70
44851;DHT22;30583;48.714;9.386;2024-01-11T03:18:15;-3276.30;62.60
44851;DHT22;30583;48.714;9.386;2024-01-11T03:20:41;-3276.20;63.10
44851;DHT22;30583;48.714;9.386;2024-01-11T03:23:06;-3276.00;62.70
44851;DHT22;30583;48.714;9.386;2024-01-11T03:25:32;-3275.80;63.70
44851;DHT22;30583;48.714;9.386;2024-01-11T03:27:58;-3275.90;64.30
44851;DHT22;30583;48.714;9.386;2024-01-11T03:30:24;-3276.10;63.20
44851;DHT22;30583;48.714;9.386;2024-01-11T03:32:53;-3276.20;62.90
44851;DHT22;30583;48.714;9.386;2024-01-11T03:35:19;-3276.30;62.60
44851;DHT22;30583;48.714;9.386;2024-01-11T03:37:44;-3276.50;62.30
44851;DHT22;30583;48.714;9.386;2024-01-11T03:40:10;-3276.70;61.30
44851;DHT22;30583;48.714;9.386;2024-01-11T03:42:36;-3276.60;61.40
44851;DHT22;30583;48.714;9.386;2024-01-11T03:45:03;-3276.30;61.40
44851;DHT22;30583;48.714;9.386;2024-01-11T03:47:29;-3276.40;61.40
44851;DHT22;30583;48.714;9.386;2024-01-11T03:49:55;-3276.20;61.80
44851;DHT22;30583;48.714;9.386;2024-01-11T03:52:21;-3276.20;62.40
44851;DHT22;30583;48.714;9.386;2024-01-11T03:54:46;-3275.90;62.10
44851;DHT22;30583;48.714;9.386;2024-01-11T03:57:12;-3276.10;62.80
44851;DHT22;30583;48.714;9.386;2024-01-11T03:59:37;-3276.30;62.30
44851;DHT22;30583;48.714;9.386;2024-01-11T04:02:03;-3276.30;62.10
44851;DHT22;30583;48.714;9.386;2024-01-11T04:04:29;-3276.10;63.00
44851;DHT22;30583;48.714;9.386;2024-01-11T04:06:54;-3276.40;62.10
44851;DHT22;30583;48.714;9.386;2024-01-11T04:09:20;-3276.50;62.30
44851;DHT22;30583;48.714;9.386;2024-01-11T04:11:46;-3276.50;61.90
44851;DHT22;30583;48.714;9.386;2024-01-11T04:14:12;-3276.40;61.50
44851;DHT22;30583;48.714;9.386;2024-01-11T04:16:41;-3276.30;61.20
44851;DHT22;30583;48.714;9.386;2024-01-11T04:19:07;-3276.10;62.40
44851;DHT22;30583;48.714;9.386;2024-01-11T04:21:32;-3275.80;63.30
44851;DHT22;30583;48.714;9.386;2024-01-11T04:23:59;-3276.20;62.90
44851;DHT22;30583;48.714;9.386;2024-01-11T04:26:25;-3276.30;61.80
44851;DHT22;30583;48.714;9.386;2024-01-11T04:28:51;-3275.60;62.90
44851;DHT22;30583;48.714;9.386;2024-01-11T04:31:17;-3275.90;63.50
44851;DHT22;30583;48.714;9.386;2024-01-11T04:33:43;-3276.00;63.60
44851;DHT22;30583;48.714;9.386;2024-01-11T04:36:10;-3276.20;62.90
44851;DHT22;30583;48.714;9.386;2024-01-11T04:38:36;-3276.20;62.50
44851;DHT22;30583;48.714;9.386;2024-01-11T04:41:07;-3276.00;62.30
44851;DHT22;30583;48.714;9.386;2024-01-11T04:43:32;-3276.00;62.60
44851;DHT22;30583;48.714;9.386;2024-01-11T04:45:58;-3275.80;63.00
44851;DHT22;30583;48.714;9.386;2024-01-11T04:48:23;-3275.90;62.70
44851;DHT22;30583;48.714;9.386;2024-01-11T04:50:49;-3275.70;62.90
44851;DHT22;30583;48.714;9.386;2024-01-11T04:53:15;-3275.90;62.50
44851;DHT22;30583;48.714;9.386;2024-01-11T04:55:41;-3275.60;62.50
44851;DHT22;30583;48.714;9.386;2024-01-11T04:58:09;-3274.90;64.80
44851;DHT22;30583;48.714;9.386;2024-01-11T05:00:34;-3274.90;65.30
44851;DHT22;30583;48.714;9.386;2024-01-11T05:03:00;-3275.30;64.20
44851;DHT22;30583;48.714;9.386;2024-01-11T05:05:25;-3275.10;64.50
44851;DHT22;30583;48.714;9.386;2024-01-11T05:07:51;-3274.80;65.70
44851;DHT22;30583;48.714;9.386;2024-01-11T05:10:16;-3274.70;66.20
44851;DHT22;30583;48.714;9.386;2024-01-11T05:12:42;-3274.80;66.00
44851;DHT22;30583;48.714;9.386;2024-01-11T05:15:08;-3274.70;65.50
44851;DHT22;30583;48.714;9.386;2024-01-11T05:17:34;-3275.10;65.90
44851;DHT22;30583;48.714;9.386;2024-01-11T05:19:59;-3274.90;65.70
44851;DHT22;30583;48.714;9.386;2024-01-11T05:22:25;-3274.70;65.80
44851;DHT22;30583;48.714;9.386;2024-01-11T05:24:51;-3274.20;67.40
44851;DHT22;30583;48.714;9.386;2024-01-11T05:27:16;-3274.90;67.50
44851;DHT22;30583;48.714;9.386;2024-01-11T05:29:42;-3275.10;66.00
44851;DHT22;30583;48.714;9.386;2024-01-11T05:32:07;-3275.20;65.70
44851;DHT22;30583;48.714;9.386;2024-01-11T05:34:33;-3275.20;65.80
44851;DHT22;30583;48.714;9.386;2024-01-11T05:36:58;-3275.60;63.80
44851;DHT22;30583;48.714;9.386;2024-01-11T05:39:24;-3275.90;63.70
44851;DHT22;30583;48.714;9.386;2024-01-11T05:41:49;-3275.60;63.90
44851;DHT22;30583;48.714;9.386;2024-01-11T05:44:15;-3275.60;63.30
44851;DHT22;30583;48.714;9.386;2024-01-11T05:46:41;-3275.80;63.00
44851;DHT22;30583;48.714;9.386;2024-01-11T05:49:06;-3275.30;63.70
44851;DHT22;30583;48.714;9.386;2024-01-11T05:51:36;-3275.60;63.40
44851;DHT22;30583;48.714;9.386;2024-01-11T05:54:01;-3275.30;64.30
44851;DHT22;30583;48.714;9.386;2024-01-11T05:56:27;-3275.30;64.90
44851;DHT22;30583;48.714;9.386;2024-01-11T05:58:53;-3275.60;64.30
44851;DHT22;30583;48.714;9.386;2024-01-11T06:01:18;-3275.20;65.10
44851;DHT22;30583;48.714;9.386;2024-01-11T06:03:44;-3275.80;63.40
44851;DHT22;30583;48.714;9.386;2024-01-11T06:06:09;-3275.50;62.90
44851;DHT22;30583;48.714;9.386;2024-01-11T06:08:35;-3274.70;64.80
44851;DHT22;30583;48.714;9.386;2024-01-11T06:11:01;-3274.70;65.90
44851;DHT22;30583;48.714;9.386;2024-01-11T06:13:26;-3275.20;64.80
44851;DHT22;30583;48.714;9.386;2024-01-11T06:15:53;-3275.00;64.50
44851;DHT22;30583;48.714;9.386;2024-01-11T06:18:18;-3275.20;64.30
44851;DHT22;30583;48.714;9.386;2024-01-11T06:20:44;-3275.10;64.20
44851;DHT22;30583;48.714;9.386;2024-01-11T06:23:09;-3275.40;63.40
44851;DHT22;30583;48.714;9.386;2024-01-11T06:25:35;-3275.70;62.70
44851;DHT22;30583;48.714;9.386;2024-01-11T06:28:03;-3275.30;63.20
44851;DHT22;30583;48.714;9.386;2024-01-11T06:30:29;-3274.70;64.90
44851;DHT22;30583;48.714;9.386;2024-01-11T06:32:54;-3274.70;65.20
44851;DHT22;30583;48.714;9.386;2024-01-11T06:35:20;-3275.20;64.50
44851;DHT22;30583;48.714;9.386;2024-01-11T06:37:45;-3275.30;63.90
44851;DHT22;30583;48.714;9.386;2024-01-11T06:40:11;-3275.50;63.30
44851;DHT22;30583;48.714;9.386;2024-01-11T06:42:36;-3275.50;62.90
44851;DHT22;30583;48.714;9.386;2024-01-11T06:45:02;-3275.20;63.40
44851;DHT22;30583;48.714;9.386;2024-01-11T06:47:28;-3275.00;63.60
44851;DHT22;30583;48.714;9.386;2024-01-11T06:49:54;-3274.60;65.20
44851;DHT22;30583;48.714;9.386;2024-01-11T06:52:20;-3274.90;65.20
44851;DHT22;30583;48.714;9.386;2024-01-11T06:54:45;-3275.00;64.00
44851;DHT22;30583;48.714;9.386;2024-01-11T06:57:11;-3274.90;64.10
44851;DHT22;30583;48.714;9.386;2024-01-11T06:59:36;-3274.70;64.60
44851;DHT22;30583;48.714;9.386;2024-01-11T07:02:03;-3274.50;65.70
44851;DHT22;30583;48.714;9.386;2024-01-11T07:04:29;-3274.50;66.00
44851;DHT22;30583;48.714;9.386;2024-01-11T07:06:54;-3274.70;65.30
44851;DHT22;30583;48.714;9.386;2024-01-11T07:09:20;-3274.60;65.70
44851;DHT22;30583;48.714;9.386;2024-01-11T07:11:45;-3274.40;65.30
44851;DHT22;30583;48.714;9.386;2024-01-11T07:14:11;-3274.30;66.50
44851;DHT22;30583;48.714;9.386;2024-01-11T07:16:37;-3274.50;66.30
44851;DHT22;30583;48.714;9.386;2024-01-11T07:19:03;-3274.70;65.70
44851;DHT22;30583;48.714;9.386;2024-01-11T07:21:28;-3274.50;65.90
44851;DHT22;30583;48.714;9.386;2024-01-11T07:23:58;-3274.40;66.60
44851;DHT22;30583;48.714;9.386;2024-01-11T07:26:24;-3275.00;65.30
44851;DHT22;30583;48.714;9.386;2024-01-11T07:28:50;-3274.80;65.00
44851;DHT22;30583;48.714;9.386;2024-01-11T07:31:16;-3274.60;65.10
44851;DHT22;30583;48.714;9.386;2024-01-11T07:33:42;-3274.60;66.40
44851;DHT22;30583;48.714;9.386;2024-01-11T07:36:08;-3274.80;66.00
44851;DHT22;30583;48.714;9.386;2024-01-11T07:38:34;-3274.60;65.80
44851;DHT22;30583;48.714;9.386;2024-01-11T07:41:00;-3274.20;67.00
44851;DHT22;30583;48.714;9.386;2024-01-11T07:43:27;-3274.80;66.40
44851;DHT22;30583;48.714;9.386;2024-01-11T07:45:54;-3275.10;64.90
44851;DHT22;30583;48.714;9.386;2024-01-11T07:48:22;-3274.50;65.50
44851;DHT22;30583;48.714;9.386;2024-01-11T07:50:48;-3274.60;69.10
44851;DHT22;30583;48.714;9.386;2024-01-11T07:53:14;-3275.00;69.50
44851;DHT22;30583;48.714;9.386;2024-01-11T07:55:40;-3275.40;67.10
44851;DHT22;30583;48.714;9.386;2024-01-11T07:58:06;-3275.20;66.20
44851;DHT22;30583;48.714;9.386;2024-01-11T08:00:32;-3275.70;64.70
44851;DHT22;30583;48.714;9.386;2024-01-11T08:02:57;-3274.80;65.40
44851;DHT22;30583;48.714;9.386;2024-01-11T08:05:23;-3275.60;64.50
44851;DHT22;30583;48.714;9.386;2024-01-11T08:07:49;-3274.90;63.90
44851;DHT22;30583;48.714;9.386;2024-01-11T08:10:15;4.20;90.40
44851;DHT22;30583;48.714;9.386;2024-01-11T08:12:40;11.60;69.80
44851;DHT22;30583;48.714;9.386;2024-01-11T08:15:06;12.70;55.80
44851;DHT22;30583;48.714;9.386;2024-01-11T08:17:32;12.50;41.80
44851;DHT22;30583;48.714;9.386;2024-01-11T08:19:57;4.10;47.20
44851;DHT22;30583;48.714;9.386;2024-01-11T08:22:23;1.30;53.60
44851;DHT22;30583;48.714;9.386;2024-01-11T08:24:49;0.10;58.10
44851;DHT22;30583;48.714;9.386;2024-01-11T08:27:15;0.00;59.90
44851;DHT22;30583;48.714;9.386;2024-01-11T08:29:43;-3276.50;59.60
44851;DHT22;30583;48.714;9.386;2024-01-11T08:32:09;-3276.00;60.90
44851;DHT22;30583;48.714;9.386;2024-01-11T08:34:34;-3275.90;62.10
44851;DHT22;30583;48.714;9.386;2024-01-11T08:37:00;-3276.40;61.40
44851;DHT22;30583;48.714;9.386;2024-01-11T08:39:25;-3276.30;60.90
44851;DHT22;30583;48.714;9.386;2024-01-11T08:41:51;-3276.20;61.70
44851;DHT22;30583;48.714;9.386;2024-01-11T08:44:18;-3276.00;62.00
44851;DHT22;30583;48.714;9.386;2024-01-11T08:46:43;-3276.30;62.50
44851;DHT22;30583;48.714;9.386;2024-01-11T08:49:09;-3276.30;62.10
44851;DHT22;30583;48.714;9.386;2024-01-11T08:51:35;-3276.20;62.30
44851;DHT22;30583;48.714;9.386;2024-01-11T08:54:01;-3275.80;62.70
44851;DHT22;30583;48.714;9.386;2024-01-11T08:56:26;-3275.50;64.40
44851;DHT22;30583;48.714;9.386;2024-01-11T08:58:53;-3275.60;64.90
44851;DHT22;30583;48.714;9.386;2024-01-11T09:01:19;-3275.40;65.10
44851;DHT22;30583;48.714;9.386;2024-01-11T09:03:45;-3275.30;65.90
44851;DHT22;30583;48.714;9.386;2024-01-11T09:06:13;-3275.70;65.90
44851;DHT22;30583;48.714;9.386;2024-01-11T09:08:39;-3275.80;65.60
44851;DHT22;30583;48.714;9.386;2024-01-11T09:11:06;-3276.40;63.90
44851;DHT22;30583;48.714;9.386;2024-01-11T09:13:32;-3276.00;63.60
44851;DHT22;30583;48.714;9.386;2024-01-11T09:15:58;-3275.90;65.30
44851;DHT22;30583;48.714;9.386;2024-01-11T09:18:23;-3276.50;64.40
44851;DHT22;30583;48.714;9.386;2024-01-11T09:20:49;1.60;65.40
44851;DHT22;30583;48.714;9.386;2024-01-11T09:23:15;5.10;54.20
44851;DHT22;30583;48.714;9.386;2024-01-11T09:25:41;2.40;59.40
44851;DHT22;30583;48.714;9.386;2024-01-11T09:28:07;1.00;59.10
44851;DHT22;30583;48.714;9.386;2024-01-11T09:30:33;0.20;61.90
44851;DHT22;30583;48.714;9.386;2024-01-11T09:32:58;-3276.40;64.20
44851;DHT22;30583;48.714;9.386;2024-01-11T09:35:24;-3276.10;66.30
44851;DHT22;30583;48.714;9.386;2024-01-11T09:37:50;0.00;65.30
44851;DHT22;30583;48.714;9.386;2024-01-11T09:40:17;0.50;63.40
44851;DHT22;30583;48.714;9.386;2024-01-11T09:42:43;0.50;62.80
44851;DHT22;30583;48.714;9.386;2024-01-11T09:45:13;0.40;62.60
44851;DHT22;30583;48.714;9.386;2024-01-11T09:47:39;0.40;62.40
44851;DHT22;30583;48.714;9.386;2024-01-11T09:50:06;0.00;64.20
44851;DHT22;30583;48.714;9.386;2024-01-11T09:52:32;0.00;64.10
44851;DHT22;30583;48.714;9.386;2024-01-11T09:55:01;0.30;63.80
44851;DHT22;30583;48.714;9.386;2024-01-11T09:57:29;0.60;63.30
44851;DHT22;30583;48.714;9.386;2024-01-11T09:59:57;0.80;62.30
44851;DHT22;30583;48.714;9.386;2024-01-11T10:02:23;1.20;61.50
44851;DHT22;30583;48.714;9.386;2024-01-11T10:04:50;1.40;60.90
44851;DHT22;30583;48.714;9.386;2024-01-11T10:07:21;1.20;61.20
44851;DHT22;30583;48.714;9.386;2024-01-11T10:09:48;1.60;60.10
44851;DHT22;30583;48.714;9.386;2024-01-11T10:12:15;1.80;59.40
44851;DHT22;30583;48.714;9.386;2024-01-11T10:14:41;2.30;58.10
44851;DHT22;30583;48.714;9.386;2024-01-11T10:17:07;2.60;57.30
44851;DHT22;30583;48.714;9.386;2024-01-11T10:19:32;2.70;56.60
44851;DHT22;30583;48.714;9.386;2024-01-11T10:21:58;2.90;55.90
44851;DHT22;30583;48.714;9.386;2024-01-11T10:24:24;3.20;55.20
44851;DHT22;30583;48.714;9.386;2024-01-11T10:26:57;3.40;54.90
44851;DHT22;30583;48.714;9.386;2024-01-11T10:29:30;3.60;54.50
44851;DHT22;30583;48.714;9.386;2024-01-11T10:31:55;3.60;54.20
44851;DHT22;30583;48.714;9.386;2024-01-11T10:34:23;3.80;53.50
44851;DHT22;30583;48.714;9.386;2024-01-11T10:36:50;4.10;53.10
44851;DHT22;30583;48.714;9.386;2024-01-11T10:39:16;4.40;51.90
44851;DHT22;30583;48.714;9.386;2024-01-11T10:41:47;4.20;51.50
44851;DHT22;30583;48.714;9.386;2024-01-11T10:44:19;4.30;51.70
44851;DHT22;30583;48.714;9.386;2024-01-11T10:46:46;4.70;51.10
44851;DHT22;30583;48.714;9.386;2024-01-11T10:49:16;5.10;50.60
44851;DHT22;30583;48.714;9.386;2024-01-11T10:51:45;5.20;50.00
44851;DHT22;30583;48.714;9.386;2024-01-11T10:54:13;5.20;49.80
44851;DHT22;30583;48.714;9.386;2024-01-11T10:56:40;5.00;53.40
44851;DHT22;30583;48.714;9.386;2024-01-11T10:59:10;5.10;53.00
44851;DHT22;30583;48.714;9.386;2024-01-11T11:01:38;5.50;50.70
44851;DHT22;30583;48.714;9.386;2024-01-11T11:04:06;5.90;49.40
44851;DHT22;30583;48.714;9.386;2024-01-11T11:06:34;5.90;53.30
44851;DHT22;30583;48.714;9.386;2024-01-11T11:09:01;5.10;50.20
44851;DHT22;30583;48.714;9.386;2024-01-11T11:11:30;5.70;51.50
44851;DHT22;30583;48.714;9.386;2024-01-11T11:14:01;5.70;50.70
44851;DHT22;30583;48.714;9.386;2024-01-11T11:16:27;5.20;49.20
44851;DHT22;30583;48.714;9.386;2024-01-11T11:18:56;5.50;51.80
44851;DHT22;30583;48.714;9.386;2024-01-11T11:21:22;5.60;51.40
44851;DHT22;30583;48.714;9.386;2024-01-11T11:23:50;5.60;50.90
44851;DHT22;30583;48.714;9.386;2024-01-11T11:26:16;5.70;49.20
44851;DHT22;30583;48.714;9.386;2024-01-11T11:28:42;5.60;48.70
44851;DHT22;30583;48.714;9.386;2024-01-11T11:31:10;5.60;48.80
44851;DHT22;30583;48.714;9.386;2024-01-11T11:33:37;5.70;48.60
44851;DHT22;30583;48.714;9.386;2024-01-11T11:36:03;6.20;47.70
44851;DHT22;30583;48.714;9.386;2024-01-11T11:38:30;6.40;47.40
44851;DHT22;30583;48.714;9.386;2024-01-11T11:40:57;6.70;46.40
44851;DHT22;30583;48.714;9.386;2024-01-11T11:43:25;6.20;47.10
44851;DHT22;30583;48.714;9.386;2024-01-11T11:45:52;6.40;47.00
44851;DHT22;30583;48.714;9.386;2024-01-11T11:51:16;6.70;46.50
44851;DHT22;30583;48.714;9.386;2024-01-11T11:53:43;6.40;47.20
44851;DHT22;30583;48.714;9.386;2024-01-11T11:56:17;6.60;46.50
44851;DHT22;30583;48.714;9.386;2024-01-11T11:58:44;6.40;47.00
44851;DHT22;30583;48.714;9.386;2024-01-11T12:01:10;6.80;46.80
44851;DHT22;30583;48.714;9.386;2024-01-11T12:03:37;6.90;46.20
44851;DHT22;30583;48.714;9.386;2024-01-11T12:06:05;7.20;46.50
44851;DHT22;30583;48.714;9.386;2024-01-11T12:08:31;7.40;45.50
44851;DHT22;30583;48.714;9.386;2024-01-11T12:10:58;7.70;45.30
44851;DHT22;30583;48.714;9.386;2024-01-11T12:13:24;7.80;44.90
44851;DHT22;30583;48.714;9.386;2024-01-11T12:15:50;7.90;44.40
44851;DHT22;30583;48.714;9.386;2024-01-11T12:18:15;7.90;44.30
44851;DHT22;30583;48.714;9.386;2024-01-11T12:20:41;8.10;44.50
44851;DHT22;30583;48.714;9.386;2024-01-11T12:23:06;8.10;44.00
44851;DHT22;30583;48.714;9.386;2024-01-11T12:25:32;8.20;43.80
44851;DHT22;30583;48.714;9.386;2024-01-11T12:27:58;8.30;43.30
44851;DHT22;30583;48.714;9.386;2024-01-11T12:30:27;8.10;43.70
44851;DHT22;30583;48.714;9.386;2024-01-11T12:32:53;8.20;43.80
44851;DHT22;30583;48.714;9.386;2024-01-11T12:35:20;8.50;43.20
44851;DHT22;30583;48.714;9.386;2024-01-11T12:37:55;8.60;43.30
44851;DHT22;30583;48.714;9.386;2024-01-11T12:40:22;8.70;42.50
44851;DHT22;30583;48.714;9.386;2024-01-11T12:42:48;8.40;42.80
44851;DHT22;30583;48.714;9.386;2024-01-11T12:45:17;8.70;42.80
44851;DHT22;30583;48.714;9.386;2024-01-11T12:47:43;8.80;42.20
44851;DHT22;30583;48.714;9.386;2024-01-11T12:50:10;8.20;42.80
44851;DHT22;30583;48.714;9.386;2024-01-11T12:52:40;8.80;42.70
44851;DHT22;30583;48.714;9.386;2024-01-11T12:55:18;9.10;41.70
44851;DHT22;30583;48.714;9.386;2024-01-11T12:57:44;9.20;41.90
44851;DHT22;30583;48.714;9.386;2024-01-11T13:00:13;9.40;41.50
44851;DHT22;30583;48.714;9.386;2024-01-11T13:02:39;9.60;41.20
44851;DHT22;30583;48.714;9.386;2024-01-11T13:05:05;9.30;41.10
44851;DHT22;30583;48.714;9.386;2024-01-11T13:07:32;9.50;41.20
44851;DHT22;30583;48.714;9.386;2024-01-11T13:09:59;9.80;40.70
44851;DHT22;30583;48.714;9.386;2024-01-11T13:12:25;9.70;40.60
44851;DHT22;30583;48.714;9.386;2024-01-11T13:14:50;9.40;41.20
44851;DHT22;30583;48.714;9.386;2024-01-11T13:17:18;9.70;40.60
44851;DHT22;30583;48.714;9.386;2024-01-11T13:19:44;10.00;40.40
44851;DHT22;30583;48.714;9.386;2024-01-11T13:22:10;10.00;40.20
44851;DHT22;30583;48.714;9.386;2024-01-11T13:24:36;10.20;39.80
44851;DHT22;30583;48.714;9.386;2024-01-11T13:27:01;9.90;39.70
44851;DHT22;30583;48.714;9.386;2024-01-11T13:29:27;9.90;40.10
44851;DHT22;30583;48.714;9.386;2024-01-11T13:31:53;10.20;39.40
44851;DHT22;30583;48.714;9.386;2024-01-11T13:34:18;10.10;39.50
44851;DHT22;30583;48.714;9.386;2024-01-11T13:36:44;10.30;39.10
44851;DHT22;30583;48.714;9.386;2024-01-11T13:39:10;9.90;39.70
44851;DHT22;30583;48.714;9.386;2024-01-11T13:41:36;9.60;42.90
44851;DHT22;30583;48.714;9.386;2024-01-11T13:44:01;8.20;45.70
44851;DHT22;30583;48.714;9.386;2024-01-11T13:46:27;7.70;47.20
44851;DHT22;30583;48.714;9.386;2024-01-11T13:48:53;7.50;47.50
44851;DHT22;30583;48.714;9.386;2024-01-11T13:51:19;7.70;46.50
44851;DHT22;30583;48.714;9.386;2024-01-11T13:53:44;8.80;42.70
44851;DHT22;30583;48.714;9.386;2024-01-11T13:56:10;8.80;42.60
44851;DHT22;30583;48.714;9.386;2024-01-11T13:58:36;9.10;41.90
44851;DHT22;30583;48.714;9.386;2024-01-11T14:01:02;9.50;41.10
44851;DHT22;30583;48.714;9.386;2024-01-11T14:03:28;9.50;40.40
44851;DHT22;30583;48.714;9.386;2024-01-11T14:05:53;9.30;40.90
44851;DHT22;30583;48.714;9.386;2024-01-11T14:08:19;9.70;40.70
44851;DHT22;30583;48.714;9.386;2024-01-11T14:10:45;10.10;39.90
44851;DHT22;30583;48.714;9.386;2024-01-11T14:13:10;10.10;39.90
44851;DHT22;30583;48.714;9.386;2024-01-11T14:15:36;10.20;39.60
44851;DHT22;30583;48.714;9.386;2024-01-11T14:18:02;10.10;39.50
44851;DHT22;30583;48.714;9.386;2024-01-11T14:20:28;10.00;39.90
44851;DHT22;30583;48.714;9.386;2024-01-11T14:22:54;9.70;40.20
44851;DHT22;30583;48.714;9.386;2024-01-11T14:25:20;10.00;40.20
44851;DHT22;30583;48.714;9.386;2024-01-11T14:27:50;9.50;40.30
44851;DHT22;30583;48.714;9.386;2024-01-11T14:30:16;9.40;41.50
44851;DHT22;30583;48.714;9.386;2024-01-11T14:32:42;9.30;40.80
44851;DHT22;30583;48.714;9.386;2024-01-11T14:35:08;9.20;41.50
44851;DHT22;30583;48.714;9.386;2024-01-11T14:37:35;9.60;41.00
44851;DHT22;30583;48.714;9.386;2024-01-11T14:40:01;9.10;41.50
44851;DHT22;30583;48.714;9.386;2024-01-11T14:42:27;9.40;41.10
44851;DHT22;30583;48.714;9.386;2024-01-11T14:44:53;9.40;40.80
44851;DHT22;30583;48.714;9.386;2024-01-11T14:47:19;9.40;40.80
44851;DHT22;30583;48.714;9.386;2024-01-11T14:49:46;9.10;41.60
44851;DHT22;30583;48.714;9.386;2024-01-11T14:52:12;9.00;41.50
44851;DHT22;30583;48.714;9.386;2024-01-11T14:54:38;9.10;41.70
44851;DHT22;30583;48.714;9.386;2024-01-11T14:57:09;8.40;42.50
44851;DHT22;30583;48.714;9.386;2024-01-11T14:59:35;8.30;42.80
44851;DHT22;30583;48.714;9.386;2024-01-11T15:02:06;7.70;43.80
44851;DHT22;30583;48.714;9.386;2024-01-11T15:04:32;7.10;45.00
44851;DHT22;30583;48.714;9.386;2024-01-11T15:06:58;6.60;46.60
44851;DHT22;30583;48.714;9.386;2024-01-11T15:09:23;6.40;47.20